Latest Weather Observations for Hobart Airport

IDT60901

Issued at 11:25 pm EST Saturday 23 August 2014 (issued every 10 minutes, with the page automatically refreshed every 10 minutes)

About weather observations | Map of Hobart area stations | Latest observations for Hobart area | Other Formats
Station Details ID: 094008 Name: HOBART AIRPORT Lat: -42.83 Lon: 147.50 Height: 4.0 m
Data from the previous 72 hours. | See also: Recent months at Hobart Airport
Date/Time
EST
Tmp

°C
App
Tmp
°C
Dew
Point
°C
Rel
Hum
%
Delta-T

°C
Wind Press
QNH
hPa
Press
MSL
hPa
Rain
since
9 am
mm
Dir
 
Spd
km/h
Gust
km/h
Spd
kts
Gust
kts
23/11:00pm 10.8 7.8 7.9 82 1.4 NW 13 15 7 8 1027.9 1028.0 0.0
23/10:30pm 12.1 9.0 8.7 80 1.7 NNE 15 20 8 11 1028.2 - 0.0
23/10:00pm 11.6 8.7 8.3 80 1.6 N 13 19 7 10 1028.3 1028.4 0.0
23/09:30pm 11.5 9.1 8.7 83 1.4 N 11 15 6 8 1028.4 - 0.0
23/09:00pm 11.7 10.7 8.9 83 1.4 N 4 7 2 4 1028.3 1028.4 0.0
23/08:30pm 11.2 9.5 8.5 83 1.3 N 7 9 4 5 1028.2 - 0.0
23/08:00pm 11.7 10.1 8.9 83 1.4 N 7 11 4 6 1028.1 1028.2 0.0
23/07:30pm 12.0 10.1 9.2 83 1.4 NW 9 11 5 6 1028.2 - 0.0
23/07:00pm 12.6 10.4 9.2 80 1.7 NNE 11 20 6 11 1028.2 1028.3 0.0
23/06:30pm 13.4 10.5 9.5 77 2.0 NNE 15 22 8 12 1028.0 - 0.0
23/06:00pm 13.9 9.9 9.2 73 2.4 NNE 20 28 11 15 1027.7 1027.8 0.0
23/05:30pm 14.0 10.1 9.3 73 2.4 NE 20 30 11 16 1027.5 - 0.0
23/05:00pm 14.6 10.7 9.3 70 2.7 NE 20 32 11 17 1027.5 1027.6 0.0
23/04:30pm 14.7 10.4 9.4 70 2.7 NE 22 30 12 16 1027.4 - 0.0
23/04:00pm 16.1 12.2 9.3 64 3.5 NE 20 30 11 16 1027.4 1027.5 0.0
23/03:30pm 15.7 12.4 9.5 66 3.2 NE 17 24 9 13 1027.5 - 0.0
23/03:00pm 15.4 11.5 9.4 67 3.1 NE 20 28 11 15 1027.7 1027.8 0.0
23/02:30pm 16.7 13.5 8.4 58 4.2 NE 15 17 8 9 1027.8 - 0.0
23/02:00pm 16.3 13.3 7.9 57 4.2 NNE 13 19 7 10 1028.1 1028.2 0.0
23/01:30pm 16.7 13.7 7.7 55 4.5 NNE 13 17 7 9 1028.4 - 0.0
23/01:00pm 15.9 12.8 7.2 56 4.3 NE 13 17 7 9 1028.7 1028.8 0.0
23/12:30pm 15.7 13.3 7.1 56 4.2 NE 9 11 5 6 1029.2 - 0.0
23/12:00pm 15.5 13.2 7.4 58 4.0 NNE 9 11 5 6 1029.9 1030.0 0.0
23/11:30am 15.4 12.6 7.0 57 4.1 NNE 11 15 6 8 1030.4 - 0.0
23/11:00am 15.3 13.0 7.4 59 3.9 NE 9 13 5 7 1030.7 1030.8 0.0
23/10:30am 13.8 12.0 8.1 68 2.8 WNW 7 9 4 5 1031.0 - 0.0
23/10:00am 12.6 10.8 8.1 74 2.2 NW 7 9 4 5 1031.2 1031.3 0.0
23/09:30am 10.2 7.1 7.2 82 1.4 NW 13 17 7 9 1031.3 - 0.0
23/09:00am 10.0 7.0 7.7 86 1.1 NNW 13 17 7 9 1031.5 1031.6 0.0
23/08:30am 8.1 4.7 6.1 87 0.9 NW 13 17 7 9 1031.7 - 0.0
23/08:00am 7.5 4.0 5.5 87 0.9 NW 13 17 7 9 1031.5 1031.6 0.0
23/07:30am 6.8 2.9 5.2 89 0.7 NW 15 17 8 9 1031.5 - 0.0
23/07:00am 5.2 1.8 4.2 93 0.4 NNW 11 17 6 9 1031.4 1031.5 0.0
23/06:30am 5.7 3.2 4.8 94 0.4 NNW 7 13 4 7 1031.2 - 0.0
23/06:00am 5.2 3.2 4.5 95 0.3 N 4 9 2 5 1031.0 1031.1 0.0
23/05:30am 5.8 3.5 4.6 92 0.5 W 6 9 3 5 1030.9 - 0.0
23/05:00am 5.8 3.8 4.6 92 0.5 E 4 7 2 4 1030.7 1030.8 0.0
23/04:30am 6.2 3.4 5.0 92 0.5 NW 9 17 5 9 1030.7 - 0.0
23/04:00am 5.6 2.3 4.7 94 0.4 WNW 11 15 6 8 1030.6 1030.7 0.0
23/03:30am 5.8 1.3 4.4 91 0.6 NW 17 20 9 11 1030.7 - 0.0
23/03:00am 6.7 3.9 5.3 91 0.6 NNW 9 13 5 7 1030.7 1030.8 0.0
23/02:30am 6.0 3.1 4.8 92 0.5 NNW 9 11 5 6 1030.9 - 0.0
23/02:00am 6.2 2.6 5.0 92 0.5 NNW 13 17 7 9 1031.1 1031.2 0.0
23/01:30am 6.8 3.7 5.4 91 0.6 NW 11 11 6 6 1031.3 - 0.0
23/01:00am 6.9 4.2 5.8 93 0.5 NW 9 11 5 6 1031.1 1031.2 0.0
23/12:30am 7.0 6.0 5.4 89 0.7 CALM 0 7 0 4 1031.0 - 0.0
23/12:00am 6.9 4.3 6.2 95 0.3 WNW 9 11 5 6 1031.0 1031.1 0.0
 
Date/Time
EST
Tmp

°C
App
Tmp
°C
Dew
Point
°C
Rel
Hum
%
Delta-T

°C
Wind Press
QNH
hPa
Press
MSL
hPa
Rain
since
9 am
mm
Dir
 
Spd
km/h
Gust
km/h
Spd
kts
Gust
kts
22/11:30pm 6.4 4.0 5.3 93 0.5 NW 7 9 4 5 1031.2 - 0.0
22/11:00pm 7.3 5.2 5.7 89 0.7 NW 6 9 3 5 1031.4 1031.5 0.0
22/10:30pm 7.1 5.7 5.3 88 0.8 N 2 7 1 4 1031.4 - 0.0
22/10:00pm 9.1 7.2 6.9 86 1.0 N 6 9 3 5 1031.5 1031.6 0.0
22/09:30pm 8.6 6.2 7.1 90 0.7 NNE 9 11 5 6 1031.6 - 0.0
22/09:00pm 10.2 8.2 7.2 82 1.4 N 7 9 4 5 1031.6 1031.7 0.0
22/08:30pm 9.3 6.9 6.9 85 1.1 N 9 11 5 6 1031.5 - 0.0
22/08:00pm 11.2 8.6 7.7 79 1.7 N 11 17 6 9 1031.4 1031.5 0.0
22/07:30pm 11.3 8.3 7.8 79 1.7 NNE 13 17 7 9 1031.2 - 0.0
22/07:00pm 11.2 9.0 7.7 79 1.7 N 9 15 5 8 1031.1 1031.2 0.0
22/06:30pm 12.1 8.0 7.8 75 2.1 NE 19 26 10 14 1030.8 - 0.0
22/06:00pm 12.7 7.9 7.5 70 2.5 NE 22 30 12 16 1030.5 1030.6 0.0
22/05:30pm 13.4 9.3 7.7 68 2.8 NE 19 24 10 13 1030.4 - 0.0
22/05:00pm 13.8 10.0 7.4 65 3.1 NE 17 24 9 13 1030.3 1030.4 0.0
22/04:30pm 14.1 10.2 7.3 63 3.3 NE 17 22 9 12 1030.1 - 0.0
22/04:00pm 15.4 10.9 6.8 56 4.2 NE 20 28 11 15 1029.9 1030.0 0.0
22/03:30pm 15.3 11.3 6.6 56 4.2 NE 17 24 9 13 1030.1 - 0.0
22/03:00pm 16.2 12.3 7.3 55 4.4 NE 17 26 9 14 1030.3 1030.4 0.0
22/02:30pm 16.7 12.6 4.5 44 5.8 N 15 20 8 11 1030.5 - 0.0
22/02:00pm 16.7 11.9 4.5 44 5.7 N 19 28 10 15 1030.7 1030.8 0.0
22/01:30pm 16.6 11.0 5.2 47 5.4 N 24 35 13 19 1031.1 - 0.0
22/01:00pm 16.3 10.1 4.2 44 5.6 N 26 37 14 20 1031.3 1031.4 0.0
22/12:30pm 16.0 10.5 5.7 50 5.0 N 24 32 13 17 1031.8 - 0.0
22/12:00pm 15.7 11.0 5.9 52 4.7 N 20 33 11 18 1032.1 1032.2 0.0
22/11:30am 13.6 11.4 6.4 62 3.5 NE 7 11 4 6 1032.7 - 0.0
22/11:00am 13.6 10.3 6.2 61 3.5 NE 13 17 7 9 1033.2 1033.3 0.0
22/10:30am 12.6 9.2 6.0 64 3.1 NE 13 17 7 9 1033.4 - 0.0
22/10:00am 12.3 10.1 6.3 67 2.8 NW 7 9 4 5 1033.6 1033.7 0.0
22/09:30am 9.5 6.8 5.7 77 1.7 WNW 9 11 5 6 1033.7 - 0.0
22/09:00am 8.1 5.9 6.1 87 0.9 NNE 7 9 4 5 1033.8 1033.9 0.0
22/08:30am 7.5 5.8 5.7 88 0.8 N 4 7 2 4 1033.9 - 0.0
22/08:00am 5.0 2.4 3.0 87 0.8 NNW 6 9 3 5 1034.0 1034.1 0.0
22/07:30am 3.0 0.4 3.0 100 0.0 WNW 6 7 3 4 1033.8 - 0.0
22/07:00am 2.7 0.9 1.1 89 0.6 CALM 0 0 0 0 1033.6 1033.7 0.0
22/06:30am 2.0 -0.5 1.5 96 0.2 WSW 4 7 2 4 1033.3 - 0.0
22/06:00am 3.4 1.9 3.2 99 0.1 CALM 0 7 0 4 1033.2 1033.3 0.0
22/05:30am 3.9 2.0 2.9 93 0.4 NNW 2 6 1 3 1033.1 - 0.0
22/05:00am 4.2 1.1 3.5 95 0.3 NW 9 11 5 6 1033.0 1033.1 0.0
22/04:30am 4.3 1.7 3.3 93 0.4 NNW 6 9 3 5 1033.0 - 0.0
22/04:00am 4.1 2.3 3.4 95 0.3 NW 2 6 1 3 1032.8 1032.9 0.0
22/03:30am 4.7 2.0 3.7 93 0.4 NW 7 9 4 5 1032.7 - 0.0
22/03:00am 4.9 2.2 3.9 93 0.4 NW 7 9 4 5 1032.6 1032.7 0.0
22/02:30am 4.8 1.7 3.8 93 0.4 WNW 9 9 5 5 1032.7 - 0.0
22/02:00am 4.3 2.9 3.8 97 0.2 CALM 0 0 0 0 1032.9 1033.0 0.0
22/01:30am 4.6 3.3 3.9 95 0.3 CALM 0 0 0 0 1033.0 - 0.0
22/01:00am 5.4 1.7 4.7 95 0.3 NW 13 15 7 8 1033.0 1033.1 0.0
22/12:30am 5.9 3.1 5.0 94 0.4 NNW 9 13 5 7 1033.0 - 0.0
22/12:00am 6.1 2.5 4.9 92 0.5 NW 13 15 7 8 1033.1 1033.2 0.0
 
Date/Time
EST
Tmp

°C
App
Tmp
°C
Dew
Point
°C
Rel
Hum
%
Delta-T

°C
Wind Press
QNH
hPa
Press
MSL
hPa
Rain
since
9 am
mm
Dir
 
Spd
km/h
Gust
km/h
Spd
kts
Gust
kts
21/11:30pm 6.6 2.4 5.5 93 0.5 NW 17 17 9 9 1033.2 - 0.0
21/11:00pm 6.7 3.2 5.3 91 0.6 NW 13 17 7 9 1033.2 1033.3 0.0
21/10:30pm 7.6 4.5 5.6 87 0.9 NW 11 15 6 8 1033.2 - 0.0
21/10:00pm 8.7 6.1 6.3 85 1.1 NNW 9 11 5 6 1033.2 1033.3 0.0
21/09:30pm 7.2 4.6 6.3 94 0.4 N 9 11 5 6 1033.2 - 0.0
21/09:00pm 8.7 6.7 6.3 85 1.1 NNW 6 9 3 5 1033.1 1033.2 0.0
21/08:30pm 8.4 7.5 6.0 85 1.1 CALM 0 0 0 0 1033.0 - 0.0
21/08:00pm 8.3 7.4 6.1 86 1.0 CALM 0 0 0 0 1032.8 1032.9 0.0
21/07:30pm 7.3 6.1 4.8 84 1.1 CALM 0 0 0 0 1032.7 - 0.0
21/07:00pm 9.8 8.1 5.8 76 1.8 SSW 4 7 2 4 1032.6 1032.7 0.0
21/06:30pm 10.1 7.6 6.4 78 1.7 ENE 9 13 5 7 1032.3 - 0.0
21/06:00pm 10.0 7.8 6.1 77 1.8 ENE 7 9 4 5 1031.9 1032.0 0.0
21/05:30pm 10.5 8.6 6.6 77 1.8 W 6 9 3 5 1031.6 - 0.0
21/05:00pm 11.8 9.3 6.5 70 2.5 SSE 9 11 5 6 1031.3 1031.4 0.0
21/04:30pm 13.3 9.8 5.3 58 3.7 SSE 13 17 7 9 1031.3 - 0.0
21/04:00pm 13.5 10.4 5.6 59 3.7 SSE 11 13 6 7 1031.1 1031.2 0.0
21/03:30pm 13.5 9.5 5.0 56 4.0 SSE 15 17 8 9 1031.1 - 0.0
21/03:00pm 13.6 9.1 4.1 52 4.3 SSE 17 20 9 11 1031.0 1031.1 0.0
21/02:30pm 13.3 9.3 4.8 56 3.9 SE 15 19 8 10 1031.2 - 0.0
21/02:00pm 13.3 9.5 5.7 60 3.5 SSE 15 19 8 10 1031.3 1031.4 0.0
21/01:30pm 14.0 11.4 6.2 59 3.7 SE 9 17 5 9 1031.5 - 0.0
21/01:00pm 14.3 11.8 4.8 53 4.4 NNW 7 11 4 6 1031.8 1031.9 0.0
21/12:30pm 13.2 10.3 4.9 57 3.8 W 9 11 5 6 1032.1 - 0.0
21/12:00pm 11.9 8.2 4.6 61 3.3 WNW 13 15 7 8 1032.5 1032.6 0.0
21/11:30am 11.2 7.1 4.5 63 3.0 NW 15 19 8 10 1032.8 - 0.0
21/11:00am 10.2 6.6 4.8 69 2.4 NW 13 19 7 10 1033.2 1033.3 0.0
21/10:30am 9.6 6.4 4.9 72 2.1 WNW 11 15 6 8 1033.4 - 0.0
21/10:00am 8.2 4.1 4.3 76 1.7 NW 15 19 8 10 1033.5 1033.6 0.0
21/09:30am 7.0 2.0 3.7 79 1.4 NW 19 20 10 11 1033.6 - 0.0
21/09:00am 6.0 1.3 3.1 82 1.2 NW 17 20 9 11 1033.5 1033.6 0.0
21/08:30am 4.7 -0.1 2.7 87 0.8 NW 17 19 9 10 1033.3 - 0.0
21/08:00am 4.2 -0.6 2.4 88 0.7 NW 17 20 9 11 1033.2 1033.3 0.0
21/07:30am 3.5 -0.3 2.0 90 0.6 NW 11 15 6 8 1032.9 - 0.0
21/07:00am 3.3 -1.2 2.0 91 0.5 NW 15 19 8 10 1032.5 1032.6 0.0
21/06:30am 3.1 -1.8 1.8 91 0.5 NW 17 22 9 12 1032.2 - 0.0
21/06:00am 3.3 -1.6 2.0 91 0.5 NW 17 19 9 10 1031.9 1032.0 0.0
21/05:30am 3.4 -1.4 2.4 93 0.4 WNW 17 19 9 10 1031.8 - 0.0
21/05:00am 3.4 -1.8 2.4 93 0.4 WNW 19 20 10 11 1031.6 1031.7 0.0
21/04:30am 4.1 -0.7 2.6 90 0.6 NW 17 20 9 11 1031.4 - 0.0
21/04:00am 4.5 -0.3 2.8 89 0.7 NW 17 19 9 10 1031.1 1031.2 0.0
21/03:30am 5.4 1.1 3.5 87 0.8 NW 15 19 8 10 1030.9 - 0.0
21/03:00am 5.6 0.6 3.7 87 0.8 NW 19 22 10 12 1030.7 1030.8 0.0
21/02:30am 5.8 1.6 3.6 86 0.9 NW 15 20 8 11 1030.7 - 0.0
21/02:00am 5.7 1.1 3.5 86 0.9 NW 17 19 9 10 1030.8 1030.9 0.0
21/01:30am 5.6 1.0 3.7 87 0.8 NW 17 19 9 10 1030.8 - 0.0
21/01:00am 5.7 1.1 3.8 87 0.8 NW 17 19 9 10 1030.9 1031.0 0.0
21/12:30am 5.2 1.3 3.5 89 0.7 NW 13 17 7 9 1031.0 - 0.0
21/12:00am 5.1 1.2 3.4 89 0.7 NW 13 17 7 9 1031.0 1031.1 0.0
 
Date/Time
EST
Tmp

°C
App
Tmp
°C
Dew
Point
°C
Rel
Hum
%
Delta-T

°C
Wind Press
QNH
hPa
Press
MSL
hPa
Rain
since
9 am
mm
Dir
 
Spd
km/h
Gust
km/h
Spd
kts
Gust
kts
20/11:30pm 5.7 1.9 3.8 87 0.8 NW 13 17 7 9 1030.8 - 0.0

Latest Capital City Observations: Canberra | Sydney | Melbourne | Brisbane | Adelaide | Perth | Hobart | Darwin

Other Formats:

Comma delimited format used in spreadsheet applications
http://www.bom.gov.au/fwo/IDT60901/IDT60901.94975.axf

JavaScript Object Notation format (JSON) in row-major order
http://www.bom.gov.au/fwo/IDT60901/IDT60901.94975.json